createdAt,value
2023-03-08T00:01:02.459Z,99910.88
2023-03-08T00:03:29.261Z,99881.56
2023-03-08T00:05:55.834Z,99906.88
2023-03-08T00:08:22.431Z,99892.28
2023-03-08T00:10:49.381Z,99901.13
2023-03-08T00:13:15.984Z,99908.56
2023-03-08T00:15:42.572Z,99911.19
2023-03-08T00:18:09.467Z,99901.75
2023-03-08T00:20:36.167Z,99881.75
2023-03-08T00:23:02.875Z,99896.00
2023-03-08T00:25:30.034Z,99900.38
2023-03-08T00:27:56.634Z,99872.63
2023-03-08T00:30:23.274Z,99898.69
2023-03-08T00:32:49.968Z,99905.41
2023-03-08T00:35:16.676Z,99862.50
2023-03-08T00:37:43.269Z,99870.09
2023-03-08T00:40:10.473Z,99884.53
2023-03-08T00:42:37.069Z,99900.53
2023-03-08T00:45:03.850Z,99909.09
2023-03-08T00:47:30.732Z,99864.59
2023-03-08T00:49:58.001Z,99893.84
2023-03-08T00:52:24.597Z,99881.28
2023-03-08T00:54:54.026Z,99908.47
2023-03-08T00:57:20.661Z,99890.84
2023-03-08T00:59:47.219Z,99898.84
2023-03-08T01:02:14.100Z,99877.06
2023-03-08T01:04:40.697Z,99893.66
2023-03-08T01:07:07.326Z,99897.22
2023-03-08T01:09:33.984Z,99883.97
2023-03-08T01:12:00.592Z,99893.28
2023-03-08T01:14:27.211Z,99902.59
2023-03-08T01:16:53.876Z,99892.53
2023-03-08T01:19:20.715Z,99885.63
2023-03-08T01:21:47.265Z,99889.66
2023-03-08T01:24:14.030Z,99871.88
2023-03-08T01:26:40.615Z,99890.13
2023-03-08T01:29:07.158Z,99882.50
2023-03-08T01:31:33.959Z,99887.72
2023-03-08T01:34:00.745Z,99838.00
2023-03-08T01:36:28.718Z,99812.09
2023-03-08T01:38:55.575Z,99874.69
2023-03-08T01:41:28.575Z,99767.28
2023-03-08T01:43:55.995Z,99869.28
2023-03-08T01:46:29.871Z,99877.09
2023-03-08T01:49:17.912Z,99866.66
2023-03-08T01:51:49.089Z,99844.97
2023-03-08T01:54:28.451Z,99830.56
2023-03-08T01:57:01.043Z,99844.72
2023-03-08T01:59:29.951Z,99858.69
2023-03-08T02:01:56.596Z,99819.22
2023-03-08T02:04:23.208Z,99846.28
2023-03-08T02:06:50.022Z,99846.97
2023-03-08T02:09:16.700Z,99844.34
2023-03-08T02:11:43.722Z,99816.78
2023-03-08T02:14:10.643Z,99813.25
2023-03-08T02:16:38.302Z,99837.47
2023-03-08T02:19:11.264Z,99840.06
2023-03-08T02:21:37.978Z,99811.88
2023-03-08T02:24:21.140Z,99835.22
2023-03-08T02:26:48.555Z,99837.09
2023-03-08T02:29:15.349Z,99806.91
2023-03-08T02:31:42.054Z,99843.13
2023-03-08T02:34:08.857Z,99843.97
2023-03-08T02:36:35.734Z,99805.44
2023-03-08T02:39:02.372Z,99838.94
2023-03-08T02:41:29.074Z,99829.81
2023-03-08T02:43:55.675Z,99838.59
2023-03-08T02:46:22.570Z,99842.13
2023-03-08T02:48:50.787Z,99838.38
2023-03-08T02:51:17.365Z,99835.22
2023-03-08T02:53:43.995Z,99830.94
2023-03-08T02:56:10.636Z,99805.38
2023-03-08T02:58:37.220Z,99822.28
2023-03-08T03:01:03.983Z,99839.06
2023-03-08T03:03:31.443Z,99831.34
2023-03-08T03:05:58.192Z,99822.97
2023-03-08T03:08:24.815Z,99814.56
2023-03-08T03:10:51.546Z,99825.44
2023-03-08T03:13:18.176Z,99813.72
2023-03-08T03:15:44.867Z,99754.38
2023-03-08T03:18:11.492Z,99787.88
2023-03-08T03:20:38.083Z,99806.38
2023-03-08T03:23:04.744Z,99812.72
2023-03-08T03:25:31.342Z,99787.28
2023-03-08T03:27:57.943Z,99811.41
2023-03-08T03:30:24.601Z,99784.06
2023-03-08T03:32:51.325Z,99799.31
2023-03-08T03:35:18.040Z,99822.84
2023-03-08T03:37:44.732Z,99825.44
2023-03-08T03:40:12.396Z,99810.63
2023-03-08T03:42:38.951Z,99823.88
2023-03-08T03:45:06.110Z,99815.69
2023-03-08T03:47:32.661Z,99817.31
2023-03-08T03:49:59.288Z,99797.44
2023-03-08T03:52:25.924Z,99825.91
2023-03-08T03:54:52.569Z,99803.38
2023-03-08T03:57:20.449Z,99821.06
2023-03-08T03:59:47.142Z,99793.25
2023-03-08T04:02:13.731Z,99795.00
2023-03-08T04:04:40.348Z,99823.66
2023-03-08T04:07:07.032Z,99821.41
2023-03-08T04:09:33.608Z,99796.44
2023-03-08T04:12:02.642Z,99835.19
2023-03-08T04:14:29.235Z,99829.97
2023-03-08T04:16:55.899Z,99838.72
2023-03-08T04:19:22.648Z,99824.28
2023-03-08T04:21:49.401Z,99825.09
2023-03-08T04:24:16.018Z,99799.13
2023-03-08T04:26:42.607Z,99764.63
2023-03-08T04:29:09.234Z,99825.09
2023-03-08T04:31:36.932Z,99814.69
2023-03-08T04:34:04.219Z,99812.22
2023-03-08T04:36:30.965Z,99775.06
2023-03-08T04:38:58.069Z,99757.75
2023-03-08T04:41:25.199Z,99810.44
2023-03-08T04:43:54.591Z,99803.44
2023-03-08T04:46:26.691Z,99804.28
2023-03-08T04:48:55.646Z,99790.16
2023-03-08T04:51:24.681Z,99802.63
2023-03-08T04:53:51.425Z,99803.44
2023-03-08T04:56:18.740Z,99800.97
2023-03-08T04:58:45.484Z,99800.75
2023-03-08T06:03:42.483Z,99740.56
2023-03-08T06:06:09.204Z,99745.78
2023-03-08T06:08:36.066Z,99734.38
2023-03-08T06:11:03.000Z,99712.91
2023-03-08T06:13:30.060Z,99697.00
2023-03-08T06:15:58.190Z,99719.31
2023-03-08T06:18:25.385Z,99704.91
2023-03-08T06:21:16.832Z,99648.56
2023-03-08T06:23:45.528Z,99712.91
2023-03-08T06:26:12.771Z,99701.09
2023-03-08T06:28:42.751Z,99680.84
2023-03-08T06:31:13.366Z,99707.44
2023-03-08T06:33:40.386Z,99683.06
2023-03-08T06:36:13.001Z,99703.72
2023-03-08T06:38:41.489Z,99669.41
2023-03-08T06:41:10.293Z,99633.06
2023-03-08T06:43:37.103Z,99705.03
2023-03-08T06:46:09.082Z,99695.44
2023-03-08T06:48:36.908Z,99703.44
2023-03-08T06:51:05.009Z,99659.75
2023-03-08T06:53:32.124Z,99710.47
2023-03-08T06:55:59.116Z,99705.94
2023-03-08T06:58:25.694Z,99697.28
2023-03-08T07:00:54.365Z,99691.63
2023-03-08T07:03:21.054Z,99701.09
2023-03-08T07:05:47.656Z,99715.94
2023-03-08T07:08:14.406Z,99700.31
2023-03-08T07:10:41.092Z,99695.38
2023-03-08T07:13:07.702Z,99693.59
2023-03-08T07:15:34.435Z,99642.28
2023-03-08T07:18:01.122Z,99685.41
2023-03-08T07:20:27.968Z,99628.91
2023-03-08T07:22:54.855Z,99677.94
2023-03-08T07:25:21.903Z,99676.50
2023-03-08T07:27:48.730Z,99701.38
2023-03-08T07:30:16.278Z,99654.63
2023-03-08T07:32:43.192Z,99668.63
2023-03-08T07:35:11.636Z,99700.63
2023-03-08T07:37:38.563Z,99684.66
2023-03-08T07:40:06.940Z,99705.06
2023-03-08T07:42:33.886Z,99707.34
2023-03-08T07:45:03.717Z,99671.84
2023-03-08T07:47:31.649Z,99704.00
2023-03-08T07:49:58.555Z,99698.78
2023-03-08T07:52:29.462Z,99673.94
2023-03-08T07:54:56.770Z,99708.53
2023-03-08T07:57:23.885Z,99677.09
2023-03-08T07:59:53.417Z,99703.19
2023-03-08T08:02:20.748Z,99696.09
2023-03-08T08:04:47.451Z,99688.19
2023-03-08T08:07:16.494Z,99666.88
2023-03-08T08:09:43.262Z,99697.97
2023-03-08T08:12:10.075Z,99659.97
2023-03-08T08:14:36.857Z,99668.84
2023-03-08T08:17:03.826Z,99708.59
2023-03-08T08:19:32.025Z,99665.34
2023-03-08T08:21:59.161Z,99702.28
2023-03-08T08:24:26.293Z,99697.47
2023-03-08T08:26:53.302Z,99676.16
2023-03-08T08:29:20.173Z,99674.66
2023-03-08T08:31:46.998Z,99694.88
2023-03-08T08:34:13.949Z,99653.22
2023-03-08T08:36:40.730Z,99693.78
2023-03-08T08:39:07.396Z,99680.47
2023-03-08T08:41:34.072Z,99677.41
2023-03-08T08:44:00.971Z,99667.53
2023-03-08T08:46:28.630Z,99642.75
2023-03-08T08:48:57.636Z,99670.78
2023-03-08T08:51:24.611Z,99662.09
2023-03-08T08:53:51.354Z,99679.06
2023-03-08T08:56:27.265Z,99667.03
2023-03-08T08:59:00.608Z,99666.31
2023-03-08T09:01:31.402Z,99682.28
2023-03-08T09:03:59.408Z,99662.38
2023-03-08T09:06:27.933Z,99645.97
2023-03-08T09:08:57.484Z,99661.03
2023-03-08T09:11:25.462Z,99669.25
2023-03-08T09:13:53.318Z,99671.75
2023-03-08T09:16:28.632Z,99635.41
2023-03-08T09:18:56.974Z,99627.34
2023-03-08T09:21:24.881Z,99664.03
2023-03-08T09:23:52.136Z,99625.19
2023-03-08T09:26:19.190Z,99645.97
2023-03-08T09:28:46.117Z,99657.50
2023-03-08T09:31:18.753Z,99652.03
2023-03-08T09:33:48.698Z,99643.09
2023-03-08T09:36:15.755Z,99637.38
2023-03-08T09:38:42.913Z,99645.22
2023-03-08T09:41:27.919Z,99638.34
2023-03-08T09:43:57.486Z,99632.50
2023-03-08T09:46:31.258Z,99617.13
2023-03-08T09:49:01.198Z,99614.00
2023-03-08T09:51:37.764Z,99633.66
2023-03-08T09:54:11.299Z,99625.44
2023-03-08T09:56:46.107Z,99615.69
2023-03-08T09:59:19.720Z,99619.38
2023-03-08T10:02:17.331Z,99631.38
2023-03-08T10:05:12.188Z,99628.97
2023-03-08T10:08:01.495Z,99622.97
2023-03-08T10:10:28.039Z,99618.09
2023-03-08T10:13:19.078Z,99613.16
2023-03-08T10:15:50.592Z,99603.00
2023-03-08T10:18:21.899Z,99614.97
2023-03-08T10:20:49.059Z,99601.34
2023-03-08T10:23:19.442Z,99606.41
2023-03-08T10:25:47.987Z,99601.03
2023-03-08T10:28:16.128Z,99611.09
2023-03-08T10:31:04.553Z,99604.47
2023-03-08T10:33:36.261Z,99602.56
2023-03-08T10:36:06.501Z,99603.41
2023-03-08T10:38:35.405Z,99596.34
2023-03-08T10:41:16.574Z,99600.13
2023-03-08T10:43:49.412Z,99590.06
2023-03-08T10:46:22.853Z,99586.66
2023-03-08T10:48:49.848Z,99570.47
2023-03-08T10:51:27.760Z,99570.75
2023-03-08T10:54:03.464Z,99588.41
2023-03-08T10:56:38.574Z,99591.47
2023-03-08T10:59:15.828Z,99560.72
2023-03-08T11:01:54.708Z,99586.25
2023-03-08T11:04:23.718Z,99579.88
2023-03-08T11:06:50.728Z,99553.25
2023-03-08T11:09:22.354Z,99563.56
2023-03-08T11:11:49.052Z,99551.69
2023-03-08T11:14:16.265Z,99525.06
2023-03-08T11:17:05.041Z,99548.19
2023-03-08T11:19:35.190Z,99540.84
2023-03-08T11:22:07.939Z,99561.94
2023-03-08T11:24:53.041Z,99558.31
2023-03-08T11:27:44.242Z,99563.56
2023-03-08T11:30:28.030Z,99566.63
2023-03-08T11:33:34.304Z,99567.56
2023-03-08T11:36:12.665Z,99563.69
2023-03-08T11:38:39.749Z,99536.91
2023-03-08T11:41:14.738Z,99549.69
2023-03-08T11:44:00.172Z,99550.94
2023-03-08T11:46:41.966Z,99525.25
2023-03-08T11:49:33.980Z,99540.25
2023-03-08T11:52:00.586Z,99535.25
2023-03-08T11:54:52.623Z,99540.66
2023-03-08T11:57:20.285Z,99536.13
2023-03-08T11:59:50.074Z,99541.38
2023-03-08T12:02:30.545Z,99535.13
2023-03-08T12:05:12.151Z,99548.50
2023-03-08T12:07:45.274Z,99558.75
2023-03-08T12:10:29.668Z,99554.09
2023-03-08T12:13:23.345Z,99553.94
2023-03-08T12:16:01.788Z,99549.38
2023-03-08T12:18:34.586Z,99553.56
2023-03-08T12:21:34.360Z,99549.97
2023-03-08T12:24:26.813Z,99546.66
2023-03-08T12:27:02.194Z,99539.78
2023-03-08T12:29:37.623Z,99497.41
2023-03-08T12:32:05.888Z,99541.47
2023-03-08T12:34:35.788Z,99533.47
2023-03-08T12:37:02.693Z,99526.94
2023-03-08T12:39:36.890Z,99523.78
2023-03-08T12:42:09.990Z,99545.66
2023-03-08T12:44:37.806Z,99545.41
2023-03-08T12:47:13.761Z,99548.44
2023-03-08T12:49:45.023Z,99542.63
2023-03-08T12:52:17.688Z,99537.94
2023-03-08T12:54:56.378Z,99491.66
2023-03-08T12:57:28.574Z,99537.88
2023-03-08T12:59:58.761Z,99506.53
2023-03-08T13:02:28.507Z,99531.06
2023-03-08T13:05:28.536Z,99523.69
2023-03-08T13:08:07.316Z,99497.31
2023-03-08T13:10:38.475Z,99504.97
2023-03-08T13:13:20.464Z,99517.00
2023-03-08T13:16:20.556Z,99494.88
2023-03-08T13:18:49.877Z,99511.06
2023-03-08T13:21:35.406Z,99517.97
2023-03-08T13:24:22.645Z,99504.53
2023-03-08T13:27:09.085Z,99495.94
2023-03-08T13:29:36.403Z,99524.06
2023-03-08T13:32:18.281Z,99517.81
2023-03-08T13:34:47.102Z,99499.97
2023-03-08T13:37:25.152Z,99519.75
2023-03-08T13:39:57.365Z,99507.25
2023-03-08T13:42:25.879Z,99498.06
2023-03-08T13:44:54.021Z,99518.28
2023-03-08T13:47:30.454Z,99503.31
2023-03-08T13:49:58.749Z,99530.34
2023-03-08T13:52:31.378Z,99535.78
2023-03-08T13:55:05.438Z,99524.84
2023-03-08T13:57:36.554Z,99525.25
2023-03-08T14:00:28.456Z,99498.94
2023-03-08T14:02:57.644Z,99507.50
2023-03-08T14:05:28.576Z,99522.22
2023-03-08T14:08:04.163Z,99511.41
2023-03-08T14:10:39.083Z,99519.47
2023-03-08T14:13:14.746Z,99498.56
2023-03-08T14:15:58.845Z,99497.50
2023-03-08T14:18:34.671Z,99457.59
2023-03-08T14:21:05.370Z,99508.00
2023-03-08T14:23:38.215Z,99509.78
2023-03-08T14:26:07.742Z,99501.44
2023-03-08T14:28:41.391Z,99493.53
2023-03-08T14:31:28.695Z,99498.94
2023-03-08T14:34:01.773Z,99507.66
2023-03-08T14:36:30.534Z,99503.13
2023-03-08T14:39:01.657Z,99500.31
2023-03-08T14:41:36.585Z,99457.78
2023-03-08T14:44:05.046Z,99495.59
2023-03-08T14:46:32.042Z,99471.97
2023-03-08T14:49:22.359Z,99492.38
2023-03-08T14:51:49.794Z,99487.09
2023-03-08T14:54:38.594Z,99471.19
2023-03-08T14:57:17.367Z,99455.88
2023-03-08T14:59:44.505Z,99468.34
2023-03-08T15:02:13.334Z,99468.34
2023-03-08T15:04:40.946Z,99470.81
2023-03-08T15:07:14.864Z,99458.88
2023-03-08T15:09:41.577Z,99418.03
2023-03-08T15:12:09.474Z,99463.84
2023-03-08T15:14:36.609Z,99460.25
2023-03-08T15:17:03.686Z,99424.28
2023-03-08T15:19:30.294Z,99451.25
2023-03-08T15:21:57.181Z,99456.63
2023-03-08T15:24:23.920Z,99428.34
2023-03-08T15:26:52.727Z,99443.03
2023-03-08T15:29:28.936Z,99453.41
2023-03-08T15:31:56.149Z,99450.53
2023-03-08T15:34:23.422Z,99442.91
2023-03-08T15:36:51.469Z,99417.44
2023-03-08T15:39:19.453Z,99448.06
2023-03-08T15:41:47.118Z,99448.75
2023-03-08T15:44:14.045Z,99438.09
2023-03-08T15:46:40.801Z,99427.81
2023-03-08T15:49:07.528Z,99442.19
2023-03-08T15:51:36.419Z,99453.00
2023-03-08T15:54:05.611Z,99446.31
2023-03-08T15:56:32.495Z,99443.28
2023-03-08T15:58:59.380Z,99429.13
2023-03-08T16:01:27.302Z,99452.09
2023-03-08T16:03:55.730Z,99441.59
2023-03-08T16:06:23.334Z,99441.84
2023-03-08T16:08:49.900Z,99449.47
2023-03-08T16:11:20.517Z,99452.75
2023-03-08T16:13:49.280Z,99460.75
2023-03-08T16:16:16.218Z,99478.59
2023-03-08T16:18:44.718Z,99423.47
2023-03-08T16:21:11.859Z,99469.47
2023-03-08T16:23:41.695Z,99467.50
2023-03-08T16:26:16.945Z,99428.09
2023-03-08T16:28:47.042Z,99452.09
2023-03-08T16:31:15.199Z,99456.63
2023-03-08T16:33:41.987Z,99443.59
2023-03-08T16:36:08.847Z,99448.97
2023-03-08T16:38:35.952Z,99446.28
2023-03-08T16:41:12.547Z,99468.41
2023-03-08T16:43:47.406Z,99423.50
2023-03-08T16:46:17.171Z,99466.75
2023-03-08T16:48:44.054Z,99446.28
2023-03-08T16:51:14.415Z,99468.41
2023-03-08T16:53:41.170Z,99446.56
2023-03-08T16:56:07.879Z,99419.66
2023-03-08T16:58:34.648Z,99361.75
2023-03-08T17:01:01.548Z,99455.94
2023-03-08T17:03:28.454Z,99381.25
2023-03-08T17:05:55.072Z,99428.03
2023-03-08T17:08:21.971Z,99437.06
2023-03-08T17:10:48.724Z,99419.34
2023-03-08T17:13:15.316Z,99451.31
2023-03-08T17:15:44.041Z,99448.16
2023-03-08T17:18:11.122Z,99373.88
2023-03-08T17:20:41.855Z,99438.72
2023-03-08T17:23:11.138Z,99410.66
2023-03-08T17:25:41.134Z,99414.94
2023-03-08T17:28:08.820Z,99428.75
2023-03-08T17:30:36.628Z,99427.38
2023-03-08T17:33:03.347Z,99427.84
2023-03-08T17:35:30.432Z,99426.19
2023-03-08T17:37:57.437Z,99424.28
2023-03-08T17:40:24.455Z,99425.94
2023-03-08T17:42:51.233Z,99427.59
2023-03-08T17:45:18.779Z,99430.09
2023-03-08T17:47:45.712Z,99429.50
2023-03-08T17:50:15.351Z,99424.53
2023-03-08T17:52:42.472Z,99404.00
2023-03-08T17:55:12.038Z,99435.97
2023-03-08T17:57:38.815Z,99422.56
2023-03-08T18:00:06.491Z,99403.47
2023-03-08T18:02:33.487Z,99405.81
2023-03-08T18:05:00.189Z,99415.47
2023-03-08T18:07:29.200Z,99432.03
2023-03-08T18:09:56.102Z,99455.00
2023-03-08T18:12:23.102Z,99427.53
2023-03-08T18:14:52.698Z,99432.97
2023-03-08T18:17:21.677Z,99413.03
2023-03-08T18:19:48.683Z,99420.88
2023-03-08T18:22:16.317Z,99446.69
2023-03-08T18:24:43.060Z,99373.59
2023-03-08T18:27:09.770Z,99451.09
2023-03-08T18:29:36.981Z,99440.59
2023-03-08T18:32:04.928Z,99449.19
2023-03-08T18:34:31.586Z,99413.66
2023-03-08T18:36:58.935Z,99460.50
2023-03-08T18:39:25.964Z,99441.00
2023-03-08T18:41:56.653Z,99444.44
2023-03-08T18:44:24.238Z,99451.91
2023-03-08T18:46:51.017Z,99390.94
2023-03-08T18:49:18.221Z,99438.59
2023-03-08T18:51:45.227Z,99417.56
2023-03-08T18:54:17.446Z,99434.44
2023-03-08T18:56:44.615Z,99430.03
2023-03-08T18:59:13.577Z,99451.31
2023-03-08T19:01:40.856Z,99420.88
2023-03-08T19:04:08.105Z,99420.88
2023-03-08T19:06:36.375Z,99434.19
2023-03-08T19:09:15.101Z,99387.63
2023-03-08T19:11:42.321Z,99403.41
2023-03-08T19:14:11.453Z,99436.09
2023-03-08T19:16:38.135Z,99424.91
2023-03-08T19:19:13.364Z,99422.78
2023-03-08T19:21:45.060Z,99434.59
2023-03-08T19:24:13.359Z,99414.72
2023-03-08T19:26:43.072Z,99434.72
2023-03-08T19:29:22.940Z,99431.13
2023-03-08T19:31:53.917Z,99431.38
2023-03-08T19:34:26.586Z,99435.66
2023-03-08T19:36:53.498Z,99433.28
2023-03-08T19:39:23.540Z,99409.16
2023-03-08T19:41:51.832Z,99437.09
2023-03-08T19:44:19.126Z,99404.19
2023-03-08T19:46:46.742Z,99432.09
2023-03-08T19:49:16.433Z,99437.34
2023-03-08T19:51:43.391Z,99434.00
2023-03-08T19:54:10.324Z,99420.78
2023-03-08T19:56:36.949Z,99395.34
2023-03-08T19:59:04.139Z,99403.78
2023-03-08T20:01:31.248Z,99392.53
2023-03-08T20:03:58.094Z,99408.69
2023-03-08T20:06:34.435Z,99400.25
2023-03-08T20:09:02.639Z,99395.88
2023-03-08T20:11:29.627Z,99400.75
2023-03-08T20:13:56.558Z,99350.59
2023-03-08T20:16:24.482Z,99382.19
2023-03-08T20:18:51.917Z,99394.09
2023-03-08T20:21:20.042Z,99394.34
2023-03-08T20:23:49.573Z,99384.94
2023-03-08T20:26:16.165Z,99385.53
2023-03-08T20:28:43.084Z,99390.09
2023-03-08T20:31:13.086Z,99393.06
2023-03-08T20:33:40.080Z,99350.66
2023-03-08T20:36:07.439Z,99406.38
2023-03-08T20:38:34.087Z,99382.34
2023-03-08T20:41:21.759Z,99387.72
2023-03-08T20:43:50.682Z,99397.94
2023-03-08T20:46:19.559Z,99414.81
2023-03-08T20:48:46.770Z,99403.19
2023-03-08T20:51:16.117Z,99413.16
2023-03-08T20:53:43.946Z,99406.28
2023-03-08T20:56:14.928Z,99402.94
2023-03-08T20:58:42.084Z,99381.56
2023-03-08T21:01:12.136Z,99404.28
2023-03-08T21:03:39.339Z,99376.91
2023-03-08T21:06:14.036Z,99427.44
2023-03-08T21:08:41.301Z,99407.94
2023-03-08T21:11:08.003Z,99404.97
2023-03-08T21:13:34.667Z,99423.63
2023-03-08T21:16:06.424Z,99423.50
2023-03-08T21:18:33.096Z,99422.69
2023-03-08T21:20:59.855Z,99415.09
2023-03-08T21:23:26.829Z,99425.56
2023-03-08T21:25:54.320Z,99408.31
2023-03-08T21:28:22.043Z,99392.72
2023-03-08T21:30:49.935Z,99404.38
2023-03-08T21:33:17.073Z,99435.75
2023-03-08T21:35:43.833Z,99435.75
2023-03-08T21:38:10.682Z,99420.53
2023-03-08T21:40:39.304Z,99425.78
2023-03-08T21:43:06.091Z,99420.31
2023-03-08T21:45:33.151Z,99436.84
2023-03-08T21:47:59.989Z,99413.06
2023-03-08T21:50:27.364Z,99422.00
2023-03-08T21:52:54.679Z,99394.16
2023-03-08T21:55:21.640Z,99429.34
2023-03-08T21:57:48.372Z,99422.59
2023-03-08T22:00:17.546Z,99409.97
2023-03-08T22:02:46.026Z,99311.22
2023-03-08T22:05:14.127Z,99374.19
2023-03-08T22:07:41.626Z,99408.31
2023-03-08T22:10:10.813Z,99395.84
2023-03-08T22:12:37.724Z,99416.03
2023-03-08T22:15:05.603Z,99398.91
2023-03-08T22:17:32.460Z,99395.09
2023-03-08T22:19:59.129Z,99373.94
2023-03-08T22:22:26.150Z,99393.91
2023-03-08T22:24:52.789Z,99351.00
2023-03-08T22:27:19.434Z,99382.63
2023-03-08T22:29:47.412Z,99351.84
2023-03-08T22:32:14.199Z,99300.38
2023-03-08T22:34:40.818Z,99378.47
2023-03-08T22:37:07.566Z,99384.88
2023-03-08T22:39:34.252Z,99382.63
2023-03-08T22:42:01.156Z,99380.84
2023-03-08T22:44:27.927Z,99338.53
2023-03-08T22:46:54.625Z,99376.31
2023-03-08T22:49:21.197Z,99342.78
2023-03-08T22:51:48.043Z,99341.97
2023-03-08T22:54:16.591Z,99351.34
2023-03-08T22:56:43.384Z,99369.69
2023-03-08T22:59:10.674Z,99374.19
2023-03-08T23:01:37.497Z,99368.94
2023-03-08T23:04:06.260Z,99370.88
2023-03-08T23:06:33.467Z,99383.94
2023-03-08T23:09:03.564Z,99379.75
2023-03-08T23:11:30.412Z,99364.22
2023-03-08T23:13:57.134Z,99387.97
2023-03-08T23:16:24.051Z,99398.69
2023-03-08T23:18:52.379Z,99403.19
2023-03-08T23:21:20.818Z,99374.88
2023-03-08T23:23:48.031Z,99395.81
2023-03-08T23:26:21.396Z,99376.34
2023-03-08T23:28:48.158Z,99382.28
2023-03-08T23:31:17.290Z,99363.25
2023-03-08T23:33:44.728Z,99355.78
2023-03-08T23:36:13.148Z,99385.50
2023-03-08T23:38:40.740Z,99400.81
2023-03-08T23:41:09.481Z,99386.09
2023-03-08T23:43:36.924Z,99402.72
2023-03-08T23:46:08.397Z,99405.81
2023-03-08T23:48:35.733Z,99364.66
2023-03-08T23:51:07.077Z,99405.00
2023-03-08T23:53:34.327Z,99400.59
2023-03-08T23:56:01.501Z,99389.41
2023-03-08T23:58:28.632Z,99404.38
